Time;durP1;ratioP1;P1;durP2;ratioP2;P2;SDS_P1;SDS_P2;PMS_P1;PMS_P2;Temp;Humidity;BMP_temperature;BMP_pressure;BME280_temperature;BME280_humidity;BME280_pressure;Samples;Min_cycle;Max_cycle;Signal;HPM_P1;HPM_P2
2022/05/07 00:01:50;;;;;;;15.93;5.60;;;;;;;14.18;60.29;100510.59;5120941;27;20102;-71
2022/05/07 00:04:15;;;;;;;12.95;5.47;;;;;;;14.17;60.23;100516.91;5122241;28;20506;-71
2022/05/07 00:06:40;;;;;;;11.35;5.28;;;;;;;14.16;60.16;100512.59;5123375;28;20337;-73
2022/05/07 00:09:06;;;;;;;12.02;5.25;;;;;;;14.15;60.44;100514.41;5121877;28;20043;-71
2022/05/07 00:11:31;;;;;;;9.27;5.32;;;;;;;14.18;59.80;100507.94;5121727;28;20028;-71
2022/05/07 00:13:57;;;;;;;13.98;8.15;;;;;;;14.19;60.03;100504.28;5121958;28;20023;-71
2022/05/07 00:19:06;;;;;;;17.47;7.30;;;;;;;14.08;60.30;100508.09;5121635;28;20413;-71
2022/05/07 00:21:32;;;;;;;13.18;5.75;;;;;;;14.11;60.05;100499.78;5120851;28;20027;-71
2022/05/07 00:23:57;;;;;;;10.82;6.32;;;;;;;14.13;60.20;100495.13;5122811;28;20102;-71
2022/05/07 00:26:23;;;;;;;12.68;6.35;;;;;;;14.04;60.85;100498.78;5121858;28;20384;-71
2022/05/07 00:28:48;;;;;;;12.95;6.32;;;;;;;14.04;61.08;100493.44;5121919;28;20038;-71
2022/05/07 00:31:14;;;;;;;12.48;5.18;;;;;;;14.01;60.89;100501.78;5122682;28;20028;-71
2022/05/07 00:33:39;;;;;;;15.85;6.15;;;;;;;13.92;61.24;100506.25;5121692;28;20023;-71
2022/05/07 00:36:05;;;;;;;15.50;5.93;;;;;;;13.85;61.51;100502.59;5121464;27;20036;-73
2022/05/07 00:38:30;;;;;;;17.08;5.80;;;;;;;13.88;61.44;100491.59;5122298;28;20099;-73
2022/05/07 00:40:56;;;;;;;15.13;5.18;;;;;;;13.89;60.96;100503.94;5121787;28;20263;-73
2022/05/07 00:43:22;;;;;;;12.05;5.53;;;;;;;13.77;61.69;100494.59;5120215;28;20027;-71
2022/05/07 00:45:49;;;;;;;12.20;5.63;;;;;;;13.71;61.80;100500.56;5121303;28;20058;-71
2022/05/07 00:48:15;;;;;;;10.50;5.40;;;;;;;13.65;62.04;100488.75;5103720;28;20023;-71
2022/05/07 00:53:25;;;;;;;16.27;5.28;;;;;;;13.53;61.84;100498.03;5122022;28;20096;-73
2022/05/07 00:55:52;;;;;;;16.77;5.70;;;;;;;13.52;62.34;100493.69;5103006;28;20019;-73
2022/05/07 00:58:18;;;;;;;18.95;5.93;;;;;;;13.47;62.18;100487.19;5121893;28;20050;-73
2022/05/07 01:00:44;;;;;;;11.32;5.25;;;;;;;13.41;62.59;100489.50;5121119;28;20076;-71
2022/05/07 01:03:10;;;;;;;11.43;5.45;;;;;;;13.38;62.87;100494.31;5120916;27;20095;-73
2022/05/07 01:05:35;;;;;;;9.63;5.57;;;;;;;13.36;62.68;100489.16;5120183;28;20039;-73
2022/05/07 01:08:01;;;;;;;13.55;5.55;;;;;;;13.37;62.34;100495.31;5120770;28;20024;-73
2022/05/07 01:10:27;;;;;;;12.25;5.40;;;;;;;13.34;62.54;100493.81;5121691;28;20371;-73
2022/05/07 01:12:54;;;;;;;15.43;6.07;;;;;;;13.28;62.65;100488.28;5120540;28;20031;-73
2022/05/07 01:15:20;;;;;;;18.98;5.90;;;;;;;13.26;62.99;100488.47;5119809;28;20063;-73
2022/05/07 01:17:45;;;;;;;13.55;5.50;;;;;;;13.31;62.84;100488.81;5121544;28;20043;-73
2022/05/07 01:20:12;;;;;;;10.75;5.82;;;;;;;13.39;62.84;100486.16;5118783;28;20252;-73
2022/05/07 01:22:38;;;;;;;12.57;5.53;;;;;;;13.32;62.85;100487.81;5119933;28;20323;-73
2022/05/07 01:25:05;;;;;;;13.55;5.32;;;;;;;13.31;62.50;100486.16;5098682;28;20032;-73
2022/05/07 01:27:30;;;;;;;12.50;6.05;;;;;;;13.36;62.56;100486.50;5120391;28;20053;-73
2022/05/07 01:29:56;;;;;;;22.20;5.80;;;;;;;13.31;63.42;100487.97;5121194;28;20090;-73
2022/05/07 01:32:22;;;;;;;15.00;6.00;;;;;;;13.29;63.16;100489.97;5120684;28;20055;-73
2022/05/07 01:34:48;;;;;;;14.18;5.65;;;;;;;13.24;62.85;100479.81;5120567;28;20300;-73
2022/05/07 01:37:13;;;;;;;10.90;6.60;;;;;;;13.18;63.42;100485.78;5121258;28;20042;-73
2022/05/07 01:39:39;;;;;;;14.00;6.07;;;;;;;13.22;62.94;100489.78;5119537;28;20039;-73
2022/05/07 01:42:05;;;;;;;10.35;5.80;;;;;;;13.23;63.25;100483.47;5118970;28;20077;-73
2022/05/07 01:44:31;;;;;;;13.23;5.85;;;;;;;13.18;63.15;100483.13;5120693;28;20116;-73
2022/05/07 01:49:40;;;;;;;14.70;6.95;;;;;;;13.08;63.37;100487.69;5121239;28;20062;-73
2022/05/07 01:52:05;;;;;;;10.73;5.65;;;;;;;12.79;62.70;100450.84;5118790;28;20271;-73
2022/05/07 01:54:31;;;;;;;13.27;6.30;;;;;;;12.90;62.17;100468.34;5121006;28;20050;-73
2022/05/07 01:56:56;;;;;;;17.42;6.00;;;;;;;12.91;62.49;100486.78;5118663;28;20049;-73
2022/05/07 01:59:22;;;;;;;12.02;5.80;;;;;;;12.84;63.87;100480.44;5119349;28;20087;-73
2022/05/07 02:01:47;;;;;;;13.73;6.20;;;;;;;12.85;63.99;100483.94;5119524;28;20363;-73
2022/05/07 02:04:12;;;;;;;11.93;6.13;;;;;;;12.74;64.26;100488.53;5101021;28;20015;-73
2022/05/07 02:06:38;;;;;;;18.25;6.05;;;;;;;12.76;64.80;100480.41;5119923;28;20027;-73
2022/05/07 02:09:03;;;;;;;14.77;5.55;;;;;;;12.70;64.97;100471.25;5120233;28;20194;-73
2022/05/07 02:11:29;;;;;;;14.43;6.15;;;;;;;12.73;65.42;100472.75;5120700;28;20031;-73
2022/05/07 02:13:54;;;;;;;8.75;5.45;;;;;;;12.78;63.47;100475.75;5119422;28;20372;-73
2022/05/07 02:16:20;;;;;;;8.27;5.32;;;;;;;12.62;63.29;100479.16;5101989;28;20023;-73
2022/05/07 02:18:45;;;;;;;10.00;5.65;;;;;;;12.56;63.12;100485.09;5120259;28;20062;-73
2022/05/07 02:21:11;;;;;;;11.93;5.75;;;;;;;12.38;63.40;100490.44;5119060;28;20027;-73
2022/05/07 02:23:36;;;;;;;11.18;6.03;;;;;;;12.26;64.38;100486.38;5119853;28;20372;-73
2022/05/07 02:26:02;;;;;;;10.57;5.85;;;;;;;12.19;64.92;100487.97;5119803;28;20026;-73
2022/05/07 02:28:27;;;;;;;11.95;5.70;;;;;;;12.09;64.65;100487.22;5119277;28;20744;-73
2022/05/07 02:30:52;;;;;;;8.70;5.45;;;;;;;12.01;65.89;100489.81;5120369;28;20067;-72
2022/05/07 02:33:18;;;;;;;19.92;6.78;;;;;;;12.10;66.57;100487.06;5119488;28;20197;-73
2022/05/07 02:35:44;;;;;;;12.93;5.97;;;;;;;12.10;66.77;100491.56;5119516;28;20027;-73
2022/05/07 02:38:09;;;;;;;11.80;5.90;;;;;;;12.09;66.34;100487.22;5118155;28;20066;-73
2022/05/07 02:42:33;;;;;;;15.07;5.82;;;;;;;11.97;66.58;100476.03;5119462;28;20024;-73
2022/05/07 02:43:20;;;;;;;9.02;5.50;;;;;;;11.96;65.99;100484.13;5117814;28;20035;-73
2022/05/07 02:45:46;;;;;;;11.90;5.43;;;;;;;11.92;66.56;100480.94;5119888;28;20051;-73
2022/05/07 02:48:11;;;;;;;11.75;5.95;;;;;;;11.80;66.28;100482.16;5119707;28;20023;-73
2022/05/07 02:50:37;;;;;;;14.52;6.18;;;;;;;11.74;66.79;100485.41;5118852;28;20043;-73
2022/05/07 02:53:03;;;;;;;16.33;6.00;;;;;;;11.70;67.54;100482.22;5118986;28;20229;-73
2022/05/07 02:55:28;;;;;;;11.82;6.13;;;;;;;11.69;67.29;100487.69;5118736;28;20020;-73
2022/05/07 02:57:54;;;;;;;15.80;5.55;;;;;;;11.65;67.03;100486.31;5118684;28;20067;-73
2022/05/07 03:00:19;;;;;;;10.82;5.78;;;;;;;11.53;66.48;100488.34;5119062;28;20020;-73
2022/05/07 03:02:44;;;;;;;13.15;5.72;;;;;;;11.45;67.90;100483.78;5119373;28;20084;-73
2022/05/07 03:05:10;;;;;;;16.95;6.20;;;;;;;11.42;68.10;100486.72;5118691;28;20011;-72
2022/05/07 03:07:35;;;;;;;13.75;6.13;;;;;;;11.52;68.61;100486.69;5119541;28;20031;-73
2022/05/07 03:10:01;;;;;;;12.38;5.93;;;;;;;11.62;67.57;100490.09;5118865;28;20360;-73
2022/05/07 03:12:28;;;;;;;13.93;5.85;;;;;;;11.76;67.78;100494.03;5119868;28;20046;-73
2022/05/07 03:14:53;;;;;;;15.38;6.40;;;;;;;11.81;68.80;100491.81;5118083;28;20024;-73
2022/05/07 03:17:18;;;;;;;16.92;6.25;;;;;;;11.99;67.87;100495.28;5119132;28;20038;-73
2022/05/07 03:19:44;;;;;;;16.15;6.95;;;;;;;12.02;67.20;100491.50;5119047;28;20023;-73
2022/05/07 03:22:09;;;;;;;15.82;6.25;;;;;;;12.08;67.95;100490.88;5099369;28;20022;-72
2022/05/07 03:24:38;;;;;;;13.65;7.57;;;;;;;12.07;68.05;100492.69;5119214;28;20042;-72
2022/05/07 03:27:04;;;;;;;14.18;6.70;;;;;;;12.19;68.28;100495.09;5118687;28;20270;-73
2022/05/07 03:29:30;;;;;;;19.73;6.90;;;;;;;12.22;67.94;100487.66;5117978;28;20129;-73
2022/05/07 03:31:55;;;;;;;11.13;6.85;;;;;;;12.31;67.67;100486.75;5118832;28;20043;-73
2022/05/07 03:34:21;;;;;;;16.00;6.75;;;;;;;12.31;67.17;100480.59;5117952;28;20068;-73
2022/05/07 03:36:47;;;;;;;12.60;7.10;;;;;;;12.46;67.02;100489.66;5118884;28;20072;-73
2022/05/07 03:39:13;;;;;;;16.23;8.18;;;;;;;12.45;67.47;100498.63;5100139;28;20019;-73
2022/05/07 03:41:39;;;;;;;14.02;7.72;;;;;;;12.45;67.35;100490.66;5117694;28;20032;-73
2022/05/07 03:44:05;;;;;;;16.58;7.47;;;;;;;12.53;66.96;100506.66;5119438;28;20237;-73
2022/05/07 03:46:30;;;;;;;16.42;7.75;;;;;;;12.73;66.69;100507.28;5123099;28;20094;-73
2022/05/07 03:48:55;;;;;;;16.70;8.15;;;;;;;12.86;66.79;100502.38;5121748;28;20099;-73
2022/05/07 03:51:21;;;;;;;16.27;7.97;;;;;;;13.05;66.25;100503.97;5123797;28;20065;-73
2022/05/07 03:53:47;;;;;;;14.18;7.18;;;;;;;13.05;65.97;100501.31;5121692;28;20333;-73
2022/05/07 03:56:12;;;;;;;15.68;7.57;;;;;;;13.09;66.28;100510.63;5103783;28;20019;-73
2022/05/07 03:58:38;;;;;;;14.80;7.90;;;;;;;13.00;66.51;100511.59;5102770;28;20052;-73
2022/05/07 04:01:04;;;;;;;14.50;7.60;;;;;;;13.15;66.01;100509.16;5121091;28;20034;-73
2022/05/07 04:03:30;;;;;;;14.77;8.10;;;;;;;13.35;65.38;100502.63;5122365;28;20046;-73
2022/05/07 04:05:56;;;;;;;15.13;7.50;;;;;;;13.50;65.17;100511.63;5121507;27;20055;-73
2022/05/07 04:08:23;;;;;;;16.20;8.32;;;;;;;13.57;65.48;100511.84;5121982;28;20027;-73
2022/05/07 04:10:49;;;;;;;15.20;8.02;;;;;;;13.62;66.14;100520.19;5122386;28;20039;-73
2022/05/07 04:13:18;;;;;;;15.60;7.82;;;;;;;13.73;64.64;100514.56;5121003;28;20055;-73
2022/05/07 04:15:43;;;;;;;13.07;7.60;;;;;;;13.95;64.91;100524.56;5121295;28;20028;-73
2022/05/07 04:18:10;;;;;;;14.07;7.85;;;;;;;14.06;64.21;100526.06;5121861;28;20039;-73
2022/05/07 04:20:35;;;;;;;13.20;8.20;;;;;;;13.78;65.42;100527.38;5120969;28;20042;-73
2022/05/07 04:23:01;;;;;;;15.88;9.15;;;;;;;13.78;65.76;100530.84;5121215;28;20032;-73
2022/05/07 04:25:27;;;;;;;20.50;9.05;;;;;;;13.97;65.72;100522.56;5121789;28;20039;-73
2022/05/07 04:27:53;;;;;;;19.67;9.20;;;;;;;14.13;64.58;100531.56;5120911;28;20042;-73
2022/05/07 04:30:20;;;;;;;20.95;9.55;;;;;;;14.34;63.99;100535.41;5120742;28;20102;-73
2022/05/07 04:32:45;;;;;;;20.35;9.25;;;;;;;14.59;63.40;100532.78;5120630;28;20103;-73
2022/05/07 04:35:11;;;;;;;18.25;9.45;;;;;;;14.63;63.12;100531.44;5121115;28;20034;-73
2022/05/07 04:37:36;;;;;;;18.25;8.88;;;;;;;14.87;62.57;100539.38;5123550;28;20047;-71
2022/05/07 04:40:02;;;;;;;16.00;7.82;;;;;;;15.25;60.25;100535.09;5120774;28;20380;-71
2022/05/07 04:42:27;;;;;;;14.85;9.00;;;;;;;15.60;59.12;100527.63;5120507;28;20385;-71
2022/05/07 04:44:53;;;;;;;16.90;8.30;;;;;;;15.64;58.57;100539.63;5121377;28;20041;-73
2022/05/07 04:47:18;;;;;;;19.50;8.43;;;;;;;15.78;57.94;100552.22;5120404;28;20095;-73
2022/05/07 04:49:44;;;;;;;15.85;8.38;;;;;;;15.90;58.16;100544.66;5121446;28;20035;-71
2022/05/07 04:52:10;;;;;;;17.90;8.80;;;;;;;15.51;58.96;100542.81;5120311;28;20518;-71
2022/05/07 04:54:36;;;;;;;14.93;8.15;;;;;;;15.73;58.49;100551.94;5120444;28;20051;-71
2022/05/07 04:57:02;;;;;;;16.25;8.38;;;;;;;15.83;58.74;100549.88;5120768;28;20063;-71
2022/05/07 04:59:27;;;;;;;15.98;8.68;;;;;;;15.73;59.22;100551.94;5120263;28;20033;-71
2022/05/07 05:01:53;;;;;;;12.00;8.25;;;;;;;15.90;58.20;100553.50;5102548;28;20031;-71
2022/05/07 05:04:19;;;;;;;15.43;7.95;;;;;;;15.94;58.69;100548.63;5120404;28;20040;-71
2022/05/07 05:06:44;;;;;;;17.20;8.13;;;;;;;16.35;57.86;100556.34;5101463;28;20318;-71
2022/05/07 05:09:12;;;;;;;13.48;8.23;;;;;;;16.46;56.50;100547.88;5121108;28;20030;-71
2022/05/07 05:11:38;;;;;;;15.68;7.80;;;;;;;16.50;56.26;100557.22;5120309;28;20035;-71
2022/05/07 05:15:01;;;;;;;13.52;7.72;;;;;;;16.29;57.35;100557.88;5120246;28;20030;-71
2022/05/07 05:16:52;;;;;;;16.25;7.93;;;;;;;16.37;56.19;100548.97;5117802;28;20098;-72
2022/05/07 05:19:18;;;;;;;16.02;8.73;;;;;;;16.61;55.50;100556.78;5120971;28;20104;-71
2022/05/07 05:21:44;;;;;;;16.85;7.28;;;;;;;16.98;55.41;100555.97;5119667;28;20712;-71
2022/05/07 05:24:10;;;;;;;20.48;8.55;;;;;;;17.49;53.73;100551.50;5119823;28;20031;-71
2022/05/07 05:26:35;;;;;;;15.85;7.80;;;;;;;18.14;51.38;100561.34;5120839;28;20392;-71
2022/05/07 05:29:01;;;;;;;12.38;7.57;;;;;;;18.45;50.53;100561.00;5120519;28;20039;-71
2022/05/07 05:31:28;;;;;;;15.25;7.63;;;;;;;18.06;51.54;100558.78;5101081;28;20032;-71
2022/05/07 05:33:54;;;;;;;13.70;7.80;;;;;;;17.83;51.19;100553.59;5119627;28;20038;-71
2022/05/07 05:36:19;;;;;;;14.63;7.60;;;;;;;17.73;52.07;100552.25;5120680;28;20024;-71
2022/05/07 05:38:45;;;;;;;14.85;8.05;;;;;;;17.52;52.74;100555.66;5119352;28;20148;-71
2022/05/07 05:41:11;;;;;;;15.15;8.05;;;;;;;17.27;53.73;100554.28;5120237;28;20050;-71
2022/05/07 05:43:38;;;;;;;19.52;8.32;;;;;;;17.27;53.98;100556.97;5119860;28;20035;-71
2022/05/07 05:46:03;;;;;;;15.98;8.63;;;;;;;17.35;54.12;100551.53;5119553;28;20024;-71
2022/05/07 05:48:29;;;;;;;15.82;8.43;;;;;;;17.40;54.47;100559.81;5121164;28;20039;-71
2022/05/07 05:50:56;;;;;;;16.48;8.20;;;;;;;17.36;54.61;100554.00;5119441;28;20016;-74
2022/05/07 05:53:21;;;;;;;15.75;8.45;;;;;;;17.95;52.02;100558.47;5120440;28;20040;-71
2022/05/07 05:55:47;;;;;;;14.95;7.70;;;;;;;17.81;54.25;100558.31;5118688;28;20138;-71
2022/05/07 05:58:13;;;;;;;13.60;7.75;;;;;;;17.80;52.99;100558.50;5118730;28;20042;-71
2022/05/07 06:00:38;;;;;;;15.05;7.95;;;;;;;17.95;52.57;100561.16;5119927;28;20221;-71
2022/05/07 06:03:05;;;;;;;11.50;7.82;;;;;;;17.51;54.20;100567.38;5119047;28;20336;-72
2022/05/07 06:05:31;;;;;;;13.57;7.53;;;;;;;18.05;52.56;100567.03;5101210;28;20024;-72
2022/05/07 06:07:56;;;;;;;12.50;7.03;;;;;;;18.63;50.42;100565.09;5119155;28;20069;-71
2022/05/07 06:10:22;;;;;;;12.45;7.13;;;;;;;18.43;51.32;100560.38;5120203;28;20051;-71
2022/05/07 06:12:48;;;;;;;17.38;7.38;;;;;;;17.70;52.71;100557.97;5119503;28;20304;-71
2022/05/07 06:15:13;;;;;;;12.90;8.43;;;;;;;17.76;52.85;100560.75;5116394;28;20027;-71
2022/05/07 06:17:39;;;;;;;11.80;7.20;;;;;;;17.57;53.57;100558.59;5119857;28;20353;-71
2022/05/07 06:20:05;;;;;;;13.43;7.43;;;;;;;17.93;54.24;100563.19;5118661;28;20059;-72
2022/05/07 06:22:30;;;;;;;16.50;7.22;;;;;;;17.96;52.97;100563.63;5118836;28;20027;-72
2022/05/07 06:27:40;;;;;;;13.18;7.28;;;;;;;18.21;52.11;100571.31;5119700;28;20035;-71
2022/05/07 06:30:06;;;;;;;12.43;7.80;;;;;;;17.99;52.09;100565.09;5118644;28;20024;-71
2022/05/07 06:32:33;;;;;;;13.45;7.53;;;;;;;18.08;51.09;100566.63;5116382;28;20360;-71
2022/05/07 06:34:59;;;;;;;16.38;7.20;;;;;;;18.09;51.27;100571.81;5119219;28;20023;-71
2022/05/07 06:37:24;;;;;;;14.85;7.20;;;;;;;18.59;49.56;100570.00;5118431;28;20371;-72
2022/05/07 06:39:50;;;;;;;13.68;7.00;;;;;;;18.99;48.63;100567.66;5119524;28;20028;-72
2022/05/07 06:42:15;;;;;;;15.38;6.88;;;;;;;18.96;47.84;100571.56;5118365;28;20041;-72
2022/05/07 06:44:42;;;;;;;10.75;7.07;;;;;;;19.38;47.48;100559.81;5118477;28;20027;-72
2022/05/07 06:47:07;;;;;;;16.65;6.90;;;;;;;19.01;48.47;100562.94;5119183;28;20028;-71
2022/05/07 06:49:32;;;;;;;9.98;6.93;;;;;;;18.67;50.20;100572.56;5118265;28;20314;-71
2022/05/07 06:51:58;;;;;;;11.55;7.07;;;;;;;18.74;49.52;100570.78;5118444;28;20377;-71
2022/05/07 06:54:24;;;;;;;20.15;7.82;;;;;;;19.04;49.61;100562.53;5118977;28;20058;-71
2022/05/07 06:56:49;;;;;;;11.57;7.00;;;;;;;18.74;49.10;100570.78;5118426;28;20035;-72
2022/05/07 06:59:15;;;;;;;11.75;6.85;;;;;;;18.43;49.64;100565.72;5118945;28;20027;-71
2022/05/07 07:01:40;;;;;;;14.73;6.80;;;;;;;18.58;49.37;100565.66;5118110;28;20081;-72
2022/05/07 07:04:06;;;;;;;12.90;6.35;;;;;;;19.34;46.33;100552.38;5119496;28;20196;-72
2022/05/07 07:06:31;;;;;;;9.23;6.22;;;;;;;19.33;45.93;100564.97;5099621;28;20016;-71
2022/05/07 07:08:57;;;;;;;13.55;7.07;;;;;;;19.09;47.80;100558.22;5119205;28;20031;-71
2022/05/07 07:11:22;;;;;;;13.38;7.28;;;;;;;19.19;46.59;100560.56;5120053;28;20314;-71
2022/05/07 07:13:48;;;;;;;13.32;7.13;;;;;;;19.25;47.59;100566.97;5118125;28;20390;-71
2022/05/07 07:16:14;;;;;;;13.35;6.70;;;;;;;19.07;48.23;100560.28;5119923;28;20022;-71
2022/05/07 07:18:39;;;;;;;12.25;6.50;;;;;;;19.53;46.99;100557.03;5119745;28;20034;-72
2022/05/07 07:21:04;;;;;;;14.93;7.38;;;;;;;19.16;48.65;100566.31;5104337;28;20309;-71
2022/05/07 07:23:30;;;;;;;14.55;7.10;;;;;;;19.85;45.14;100560.88;5122366;28;20027;-72
2022/05/07 07:25:57;;;;;;;10.88;6.60;;;;;;;19.41;45.09;100554.06;5104267;28;20031;-71
2022/05/07 07:28:23;;;;;;;12.57;6.88;;;;;;;19.51;45.51;100558.22;5121925;28;20036;-71
2022/05/07 07:30:49;;;;;;;19.40;8.52;;;;;;;18.93;46.56;100560.38;5122363;28;20077;-71
2022/05/07 07:33:14;;;;;;;11.52;6.97;;;;;;;19.00;48.15;100563.94;5123011;28;20130;-71
2022/05/07 07:35:40;;;;;;;11.70;6.50;;;;;;;19.33;46.64;100562.28;5121923;28;20321;-72
2022/05/07 07:38:05;;;;;;;14.88;6.63;;;;;;;20.26;45.02;100560.75;5122497;28;20046;-71
2022/05/07 07:40:31;;;;;;;13.57;6.57;;;;;;;20.57;43.61;100553.97;5122023;28;20266;-71
2022/05/07 07:42:57;;;;;;;13.90;7.18;;;;;;;19.89;44.22;100554.06;5121962;28;20039;-71
2022/05/07 07:48:07;;;;;;;15.25;7.10;;;;;;;20.32;44.66;100553.72;5121731;28;20226;-72
2022/05/07 07:50:36;;;;;;;10.50;6.95;;;;;;;19.96;46.00;100562.16;5121365;28;20024;-71
2022/05/07 07:53:06;;;;;;;11.18;6.43;;;;;;;19.23;46.36;100560.97;5121403;28;20042;-71
2022/05/07 07:55:34;;;;;;;9.13;6.25;;;;;;;20.08;44.35;100555.16;5118776;28;20114;-71
2022/05/07 07:58:01;;;;;;;11.73;6.63;;;;;;;20.50;43.84;100545.06;5122125;28;20354;-72
2022/05/07 08:00:28;;;;;;;10.95;6.90;;;;;;;20.91;42.26;100555.63;5121211;28;20051;-72
2022/05/07 08:03:05;;;;;;;9.10;6.30;;;;;;;20.08;45.41;100542.53;5120925;28;20027;-71
2022/05/07 08:05:33;;;;;;;10.05;5.72;;;;;;;20.09;46.12;100546.03;5121899;28;20035;-72
2022/05/07 08:13:36;;;;;;;;;;;;;;;19.49;47.17;100544.16;5121813;28;20076;-71
2022/05/07 08:16:02;;;;;;;14.90;6.68;;;;;;;19.78;46.13;100543.91;5122339;28;19934;-71
2022/05/07 08:18:28;;;;;;;12.80;7.25;;;;;;;19.03;47.72;100553.66;5121198;28;20058;-71
2022/05/07 08:20:55;;;;;;;18.27;6.45;;;;;;;19.03;48.44;100550.97;5121901;28;20313;-71
2022/05/07 08:23:20;;;;;;;9.95;6.50;;;;;;;19.31;46.97;100528.59;5121505;28;20062;-71
2022/05/07 08:25:46;;;;;;;10.70;7.05;;;;;;;19.35;47.12;100532.53;5121841;28;20023;-71
2022/05/07 08:28:11;;;;;;;15.20;7.05;;;;;;;19.50;47.75;100532.38;5102009;28;20072;-71
2022/05/07 08:30:37;;;;;;;10.85;7.40;;;;;;;18.99;49.04;100538.13;5102730;28;20068;-71
2022/05/07 08:33:04;;;;;;;13.63;7.90;;;;;;;18.77;50.53;100542.75;5121140;28;20046;-71
2022/05/07 08:35:30;;;;;;;13.07;8.05;;;;;;;19.20;48.04;100539.91;5120846;28;20032;-71
2022/05/07 08:37:55;;;;;;;9.40;6.53;;;;;;;19.27;48.66;100538.06;5121521;28;20046;-71
2022/05/07 08:40:22;;;;;;;10.18;7.00;;;;;;;18.70;49.24;100533.78;5120707;27;20336;-71
2022/05/07 08:42:48;;;;;;;13.13;6.78;;;;;;;18.70;51.18;100545.34;5117637;28;20031;-71
2022/05/07 08:45:14;;;;;;;12.50;6.40;;;;;;;19.05;49.67;100524.75;5121524;28;20039;-71
2022/05/07 08:47:41;;;;;;;14.00;6.55;;;;;;;19.51;49.16;100518.75;5102241;28;20031;-72
2022/05/07 08:50:08;;;;;;;11.07;6.15;;;;;;;19.65;49.85;100522.34;5121376;28;20035;-71
2022/05/07 08:52:38;;;;;;;13.98;6.00;;;;;;;18.79;49.17;100532.66;5120631;28;20039;-71
2022/05/07 08:55:04;;;;;;;15.10;6.00;;;;;;;19.10;48.33;100521.47;5120432;28;20076;-71
2022/05/07 08:57:30;;;;;;;9.98;6.60;;;;;;;19.41;48.63;100527.19;5120894;28;20039;-71
2022/05/07 08:59:55;;;;;;;18.55;7.85;;;;;;;18.89;47.03;100525.06;5120493;28;20032;-71
2022/05/07 09:02:21;;;;;;;18.58;7.93;;;;;;;18.78;48.38;100529.13;5121185;28;20024;-71
2022/05/07 09:04:57;;;;;;;18.65;8.45;;;;;;;18.75;49.20;100528.69;5120471;28;20113;-71
2022/05/07 09:07:23;;;;;;;13.45;7.35;;;;;;;18.49;49.94;100527.41;5119909;28;20044;-71
2022/05/07 09:09:50;;;;;;;10.50;6.93;;;;;;;18.46;46.68;100526.97;5121198;28;20255;-71
2022/05/07 09:12:28;;;;;;;12.02;6.38;;;;;;;18.50;49.25;100530.94;5113614;28;20332;-71
2022/05/07 09:15:01;;;;;;;11.20;6.15;;;;;;;18.21;46.52;100525.72;5120626;28;20096;-71
2022/05/07 09:17:27;;;;;;;11.60;5.78;;;;;;;18.31;43.24;100524.38;5120696;28;20039;-71
2022/05/07 09:19:53;;;;;;;9.15;5.65;;;;;;;18.60;43.83;100512.66;5119889;28;20034;-71
2022/05/07 09:22:19;;;;;;;10.30;5.30;;;;;;;18.41;44.19;100529.41;5120894;28;20027;-71
2022/05/07 09:24:55;;;;;;;9.80;5.82;;;;;;;18.31;43.71;100526.22;5119896;28;20032;-71
2022/05/07 09:27:24;;;;;;;10.82;5.55;;;;;;;18.78;45.87;100517.56;5119601;28;20083;-71
2022/05/07 09:30:02;;;;;;;9.52;5.40;;;;;;;18.85;44.83;100522.97;5120355;28;20035;-71
2022/05/07 09:32:36;;;;;;;14.05;6.00;;;;;;;18.54;45.76;100521.47;5121083;28;20039;-71
2022/05/07 09:37:46;;;;;;;12.73;5.47;;;;;;;18.86;45.16;100509.38;5122324;28;20100;-71
2022/05/07 09:40:12;;;;;;;11.05;4.93;;;;;;;18.97;45.68;100516.88;5119326;28;20340;-71
2022/05/07 09:42:39;;;;;;;8.68;5.18;;;;;;;19.23;43.29;100505.44;5119625;28;20086;-71
2022/05/07 09:45:06;;;;;;;9.93;5.07;;;;;;;18.97;40.90;100505.28;5101433;28;20018;-71
2022/05/07 09:47:33;;;;;;;14.18;4.78;;;;;;;19.30;45.03;100506.28;5119409;28;20028;-71
2022/05/07 09:57:30;;;;;;;7.60;4.75;;;;;;;19.34;42.41;100510.22;5116644;28;20356;-71
2022/05/07 09:58:15;;;;;;;9.35;4.72;;;;;;;19.02;43.67;100501.00;5117470;28;20050;-71
2022/05/07 10:01:07;;;;;;;10.45;4.75;;;;;;;18.98;44.31;100512.31;5120011;28;20213;-71
2022/05/07 10:03:47;;;;;;;11.30;4.97;;;;;;;18.79;44.30;100500.44;5116886;28;20032;-71
2022/05/07 10:06:23;;;;;;;9.18;5.28;;;;;;;19.17;46.74;100498.16;5118571;28;20225;-71
2022/05/07 10:08:57;;;;;;;9.35;4.85;;;;;;;19.19;44.52;100490.75;5098023;28;20081;-71
2022/05/07 10:11:24;;;;;;;;;;;;;;;19.05;43.58;100487.19;5120254;28;20046;-71
2022/05/07 10:13:55;;;;;;;10.02;4.45;;;;;;;19.17;44.31;100486.59;5119824;28;19955;-71
2022/05/07 10:16:23;;;;;;;12.48;4.43;;;;;;;19.11;41.40;100478.31;5118851;28;20292;-71
2022/05/07 10:18:49;;;;;;;8.60;4.30;;;;;;;19.03;41.28;100477.66;5116683;28;20043;-71
2022/05/07 10:21:17;;;;;;;7.85;4.10;;;;;;;19.08;42.78;100462.63;5119264;28;20245;-71
2022/05/07 10:23:50;;;;;;;9.48;4.07;;;;;;;19.27;39.40;100474.47;5118872;28;20038;-71
2022/05/07 10:26:17;;;;;;;7.65;4.13;;;;;;;19.28;41.37;100477.97;5118838;28;20353;-71
2022/05/07 10:28:42;;;;;;;8.27;3.72;;;;;;;19.27;38.56;100470.94;5119146;28;20071;-71
2022/05/07 10:31:21;;;;;;;8.77;3.55;;;;;;;19.44;41.21;100474.94;5120646;28;20022;-71
2022/05/07 10:33:47;;;;;;;9.20;4.28;;;;;;;19.42;39.02;100463.56;5100702;28;20260;-71
2022/05/07 10:36:14;;;;;;;9.35;4.25;;;;;;;19.35;37.78;100470.78;5118851;28;20071;-71
2022/05/07 10:38:42;;;;;;;7.55;3.55;;;;;;;19.25;39.72;100447.00;5119466;28;20049;-71
2022/05/07 10:41:22;;;;;;;8.68;4.40;;;;;;;19.23;37.71;100449.03;5119329;28;20051;-71
2022/05/07 10:43:48;;;;;;;11.07;4.28;;;;;;;19.43;38.19;100451.78;5119445;28;20035;-71
2022/05/07 10:46:21;;;;;;;9.25;4.43;;;;;;;19.39;39.33;100446.00;5119232;28;20083;-71
2022/05/07 10:49:07;;;;;;;7.30;4.38;;;;;;;19.60;36.97;100450.41;5119383;28;20042;-71
2022/05/07 10:51:34;;;;;;;6.70;4.35;;;;;;;19.83;37.24;100438.50;5119381;28;20039;-71
2022/05/07 10:54:05;;;;;;;9.82;5.18;;;;;;;20.03;41.08;100436.66;5124401;27;20036;-71
2022/05/07 10:56:34;;;;;;;8.15;4.15;;;;;;;19.90;38.32;100439.31;5125657;28;20043;-71
2022/05/07 10:59:01;;;;;;;11.38;4.95;;;;;;;19.79;39.77;100437.25;5125025;27;20040;-71
2022/05/07 11:01:28;;;;;;;11.35;5.45;;;;;;;19.54;40.82;100439.66;5125019;27;20047;-71
2022/05/07 11:04:08;;;;;;;13.32;5.80;;;;;;;19.62;41.08;100426.03;5125753;27;20095;-71
2022/05/07 11:06:39;;;;;;;8.80;5.60;;;;;;;19.26;41.17;100397.63;5106876;28;20027;-71
2022/05/07 11:09:05;;;;;;;9.82;5.75;;;;;;;19.47;42.97;100418.13;5124346;27;20039;-71
2022/05/07 11:11:40;;;;;;;10.38;6.28;;;;;;;19.74;43.73;100424.41;5125038;27;20217;-71
2022/05/07 11:14:06;;;;;;;9.43;5.85;;;;;;;20.05;41.75;100415.75;5125719;27;20035;-71
2022/05/07 11:16:31;;;;;;;9.23;5.93;;;;;;;20.00;41.89;100423.63;5125022;27;20026;-71
2022/05/07 11:18:56;;;;;;;20.52;6.53;;;;;;;19.70;41.55;100418.59;5126016;28;20059;-71
2022/05/07 11:21:24;;;;;;;8.82;6.53;;;;;;;19.37;41.69;100417.69;5125104;27;20038;-71
2022/05/07 11:24:01;;;;;;;11.20;6.15;;;;;;;19.48;41.14;100416.28;5126103;28;20329;-71
2022/05/07 11:26:27;;;;;;;9.48;5.85;;;;;;;19.39;42.11;100408.41;5125461;27;20019;-72
2022/05/07 11:28:53;;;;;;;8.27;6.07;;;;;;;19.59;41.43;100421.06;5125789;27;20210;-71
2022/05/07 11:31:32;;;;;;;10.05;5.18;;;;;;;19.48;39.58;100410.91;5124954;28;20027;-71
2022/05/07 11:34:00;;;;;;;7.78;4.93;;;;;;;19.61;40.29;100417.16;5125025;27;20042;-71
2022/05/07 11:36:26;;;;;;;11.25;5.68;;;;;;;19.55;42.60;100401.84;5125268;27;20027;-71
2022/05/07 11:38:59;;;;;;;9.20;5.35;;;;;;;19.68;41.56;100407.25;5125676;27;20032;-71
2022/05/07 11:41:25;;;;;;;14.02;5.05;;;;;;;19.44;38.71;100414.00;5124258;27;20122;-71
2022/05/07 11:46:47;;;;;;;7.93;5.60;;;;;;;19.80;39.81;100391.38;5124952;28;20262;-71
2022/05/07 11:49:12;;;;;;;10.05;5.50;;;;;;;19.75;42.26;100418.81;5123118;27;20035;-71